You are not logged in, Click here to log in
Raleigh Durham International Airport / KRDU Raleigh/Durham
ICAO: KRDU Country: Raleigh/Durham
Latitude: 35.8776 Longitude: -78.7875
Total Arrivals: 1 Total Departures: 1
Latest Arrival: AA1207K (KJFK-KRDU)Meng Sheng. Chan Latest Departure: A8A57 (KRDU-KORD)Meng Sheng. Chan
Scenery: http://en.wikipedia.org/wiki/Richmond_County_Airport
METAR : KRDU 130951Z 03004KT 10SM BKN014 OVC090 03/M01 A3032 RMK AO2 SLP268 T00281006

Raleigh Durham International Airport

You are accessing this site from IP address 100.26.176.182. Virtual Airline. CMS by phpVMS.Website designed by Zumeweb and edited by Theo Bearman.
There is 0 User(s) Online: | and 12 Guest(s) Online.
All information on this site is for fight simulation purposes only. This site is for flight logging for pilots of Virtual Airline&模擬飛行論壇 FlySim only.